aviador You're here:

UBBN Decoded Metar

NAKHCHIVAN in AZERBAIJAN
Report Time2018-06-23 05:30:00
UTC Time2018-06-23 05:54:46
Flight Rules vfr VFR
WindVRB at 02 kt
Visibility9999 m
Phenomena:N/A
Clouds:Few 100 Hf
Expected CloudBase > 7,200 ft AGL from Temp-Dew spread
CeilingNone
Temp26°C (ISA +22)
Dew Point08°C (32% RH)
AAT24.8°C
QNH1010 hPa
Density Alt8,432 ft
Elevation5,653 ft
Report Wrong Elevation
Raw Report
UBBN 230530Z VRB02KT 9999 FEW100 26/08 Q1010 R14R/CLRD// NOSIG RMK
MT OP QFE683=

Extra information for UBBN:More info

Metar Taf Metar & Taf Last 4 Metars F.Rules Stats Wind Profile Meteogram Temp Stats Airport Information Weather charts Add Link Nearby VenuesMetar ALERT Operation Metar Decoded Social comments